sensor_id;sensor_type;location;lat;lon;timestamp;pressure;altitude;pressure_sealevel;temperature;humidity
74334;BME280;62753;40.394;-80.022;2023-05-10T00:01:15;97487.31;;;21.97;19.03
74334;BME280;62753;40.394;-80.022;2023-05-10T00:03:41;97484.41;;;22.29;18.96
74334;BME280;62753;40.394;-80.022;2023-05-10T00:06:06;97492.30;;;21.89;19.77
74334;BME280;62753;40.394;-80.022;2023-05-10T00:08:31;97498.66;;;22.04;18.70
74334;BME280;62753;40.394;-80.022;2023-05-10T00:10:57;97503.10;;;21.61;18.97
74334;BME280;62753;40.394;-80.022;2023-05-10T00:13:21;97505.83;;;22.00;18.75
74334;BME280;62753;40.394;-80.022;2023-05-10T00:15:47;97506.45;;;22.27;18.67
74334;BME280;62753;40.394;-80.022;2023-05-10T00:18:12;97510.18;;;22.51;18.68
74334;BME280;62753;40.394;-80.022;2023-05-10T00:20:37;97513.60;;;21.59;19.25
74334;BME280;62753;40.394;-80.022;2023-05-10T00:23:03;97518.97;;;21.54;18.77
74334;BME280;62753;40.394;-80.022;2023-05-10T00:25:28;97524.08;;;21.41;19.31
74334;BME280;62753;40.394;-80.022;2023-05-10T00:27:53;97525.33;;;20.88;19.34
74334;BME280;62753;40.394;-80.022;2023-05-10T00:30:18;97524.87;;;21.55;18.75
74334;BME280;62753;40.394;-80.022;2023-05-10T00:32:44;97528.43;;;21.00;19.99
74334;BME280;62753;40.394;-80.022;2023-05-10T00:35:09;97528.12;;;20.65;19.40
74334;BME280;62753;40.394;-80.022;2023-05-10T00:37:35;97526.30;;;20.58;20.29
74334;BME280;62753;40.394;-80.022;2023-05-10T00:40:00;97528.86;;;20.07;20.17
74334;BME280;62753;40.394;-80.022;2023-05-10T00:42:25;97530.69;;;20.04;20.30
74334;BME280;62753;40.394;-80.022;2023-05-10T00:44:50;97525.38;;;19.90;20.22
74334;BME280;62753;40.394;-80.022;2023-05-10T00:47:16;97529.17;;;20.40;19.94
74334;BME280;62753;40.394;-80.022;2023-05-10T00:49:41;97526.10;;;20.86;19.77
74334;BME280;62753;40.394;-80.022;2023-05-10T00:52:06;97525.09;;;20.87;19.82
74334;BME280;62753;40.394;-80.022;2023-05-10T00:54:31;97525.62;;;20.38;19.76
74334;BME280;62753;40.394;-80.022;2023-05-10T00:56:57;97527.33;;;20.68;20.31
74334;BME280;62753;40.394;-80.022;2023-05-10T00:59:22;97525.04;;;20.77;19.49
74334;BME280;62753;40.394;-80.022;2023-05-10T01:01:47;97525.65;;;20.50;19.81
74334;BME280;62753;40.394;-80.022;2023-05-10T01:04:13;97524.75;;;20.99;19.32
74334;BME280;62753;40.394;-80.022;2023-05-10T01:06:38;97528.24;;;21.01;19.41
74334;BME280;62753;40.394;-80.022;2023-05-10T01:09:03;97537.78;;;20.34;19.51
74334;BME280;62753;40.394;-80.022;2023-05-10T01:11:29;97544.43;;;20.81;19.56
74334;BME280;62753;40.394;-80.022;2023-05-10T01:13:56;97547.83;;;20.51;19.70
74334;BME280;62753;40.394;-80.022;2023-05-10T01:16:19;97550.52;;;20.75;19.52
74334;BME280;62753;40.394;-80.022;2023-05-10T01:18:44;97554.26;;;21.03;19.32
74334;BME280;62753;40.394;-80.022;2023-05-10T01:21:23;97559.52;;;20.70;19.37
74334;BME280;62753;40.394;-80.022;2023-05-10T01:23:48;97561.43;;;20.61;19.48
74334;BME280;62753;40.394;-80.022;2023-05-10T01:26:16;97561.63;;;20.06;20.32
74334;BME280;62753;40.394;-80.022;2023-05-10T01:28:37;97566.74;;;20.16;20.01
74334;BME280;62753;40.394;-80.022;2023-05-10T01:31:04;97570.36;;;20.04;20.42
74334;BME280;62753;40.394;-80.022;2023-05-10T01:33:20;97574.06;;;20.15;20.54
74334;BME280;62753;40.394;-80.022;2023-05-10T01:35:45;97579.97;;;20.08;20.13
74334;BME280;62753;40.394;-80.022;2023-05-10T01:38:12;97584.35;;;20.10;20.38
74334;BME280;62753;40.394;-80.022;2023-05-10T01:40:37;97590.53;;;20.05;20.09
74334;BME280;62753;40.394;-80.022;2023-05-10T01:43:02;97595.06;;;19.82;20.07
74334;BME280;62753;40.394;-80.022;2023-05-10T01:45:29;97597.04;;;20.08;19.89
74334;BME280;62753;40.394;-80.022;2023-05-10T01:47:56;97602.42;;;19.90;21.16
74334;BME280;62753;40.394;-80.022;2023-05-10T01:50:17;97604.02;;;19.82;20.71
74334;BME280;62753;40.394;-80.022;2023-05-10T01:52:42;97612.13;;;20.41;20.96
74334;BME280;62753;40.394;-80.022;2023-05-10T01:55:08;97616.28;;;20.38;20.06
74334;BME280;62753;40.394;-80.022;2023-05-10T01:57:33;97612.74;;;20.35;19.78
74334;BME280;62753;40.394;-80.022;2023-05-10T01:59:55;97610.19;;;20.06;20.35
74334;BME280;62753;40.394;-80.022;2023-05-10T02:02:21;97610.56;;;19.93;19.99
74334;BME280;62753;40.394;-80.022;2023-05-10T02:04:47;97611.20;;;19.80;20.19
74334;BME280;62753;40.394;-80.022;2023-05-10T02:07:12;97615.24;;;19.31;20.96
74334;BME280;62753;40.394;-80.022;2023-05-10T02:09:37;97621.86;;;19.80;20.95
74334;BME280;62753;40.394;-80.022;2023-05-10T02:12:03;97624.99;;;19.27;21.34
74334;BME280;62753;40.394;-80.022;2023-05-10T02:14:28;97628.60;;;19.34;21.05
74334;BME280;62753;40.394;-80.022;2023-05-10T02:16:54;97628.16;;;19.48;21.06
74334;BME280;62753;40.394;-80.022;2023-05-10T02:19:18;97628.60;;;19.51;21.36
74334;BME280;62753;40.394;-80.022;2023-05-10T02:21:44;97635.10;;;19.42;21.63
74334;BME280;62753;40.394;-80.022;2023-05-10T02:24:10;97642.20;;;19.49;21.52
74334;BME280;62753;40.394;-80.022;2023-05-10T02:26:35;97643.09;;;19.62;20.71
74334;BME280;62753;40.394;-80.022;2023-05-10T02:29:02;97644.92;;;20.06;20.50
74334;BME280;62753;40.394;-80.022;2023-05-10T02:31:25;97647.94;;;19.90;20.84
74334;BME280;62753;40.394;-80.022;2023-05-10T02:33:51;97651.02;;;19.63;21.36
74334;BME280;62753;40.394;-80.022;2023-05-10T02:36:16;97653.55;;;19.24;21.12
74334;BME280;62753;40.394;-80.022;2023-05-10T02:38:41;97653.67;;;19.15;21.54
74334;BME280;62753;40.394;-80.022;2023-05-10T02:41:08;97649.11;;;19.42;21.31
74334;BME280;62753;40.394;-80.022;2023-05-10T02:43:32;97648.15;;;19.40;21.88
74334;BME280;62753;40.394;-80.022;2023-05-10T02:45:57;97646.83;;;19.19;21.09
74334;BME280;62753;40.394;-80.022;2023-05-10T02:48:22;97653.41;;;19.13;21.62
74334;BME280;62753;40.394;-80.022;2023-05-10T02:50:48;97653.72;;;18.59;21.76
74334;BME280;62753;40.394;-80.022;2023-05-10T02:53:18;97655.37;;;18.53;22.78
74334;BME280;62753;40.394;-80.022;2023-05-10T02:55:40;97655.61;;;18.83;23.17
74334;BME280;62753;40.394;-80.022;2023-05-10T02:58:04;97655.51;;;18.94;22.08
74334;BME280;62753;40.394;-80.022;2023-05-10T03:00:29;97659.80;;;19.16;21.60
74334;BME280;62753;40.394;-80.022;2023-05-10T03:02:55;97660.89;;;19.07;21.74
74334;BME280;62753;40.394;-80.022;2023-05-10T03:05:20;97668.69;;;19.13;21.36
74334;BME280;62753;40.394;-80.022;2023-05-10T03:07:45;97669.50;;;19.21;21.54
74334;BME280;62753;40.394;-80.022;2023-05-10T03:10:11;97672.71;;;18.76;23.22
74334;BME280;62753;40.394;-80.022;2023-05-10T03:12:47;97668.91;;;18.73;22.98
74334;BME280;62753;40.394;-80.022;2023-05-10T03:15:05;97669.90;;;19.02;22.43
74334;BME280;62753;40.394;-80.022;2023-05-10T03:17:32;97671.21;;;19.03;22.58
74334;BME280;62753;40.394;-80.022;2023-05-10T03:19:55;97667.65;;;19.25;21.70
74334;BME280;62753;40.394;-80.022;2023-05-10T03:22:24;97669.66;;;19.26;21.32
74334;BME280;62753;40.394;-80.022;2023-05-10T03:24:42;97675.27;;;18.93;22.32
74334;BME280;62753;40.394;-80.022;2023-05-10T03:27:08;97673.64;;;19.26;21.74
74334;BME280;62753;40.394;-80.022;2023-05-10T03:29:33;97671.57;;;18.91;21.50
74334;BME280;62753;40.394;-80.022;2023-05-10T03:31:59;97678.48;;;19.27;21.85
74334;BME280;62753;40.394;-80.022;2023-05-10T03:34:24;97680.16;;;18.70;22.38
74334;BME280;62753;40.394;-80.022;2023-05-10T03:36:49;97682.40;;;19.28;22.41
74334;BME280;62753;40.394;-80.022;2023-05-10T03:39:14;97683.54;;;18.68;22.43
74334;BME280;62753;40.394;-80.022;2023-05-10T03:41:40;97680.73;;;18.71;22.52
74334;BME280;62753;40.394;-80.022;2023-05-10T03:44:05;97681.41;;;18.74;22.51
74334;BME280;62753;40.394;-80.022;2023-05-10T03:46:30;97680.33;;;18.88;22.29
74334;BME280;62753;40.394;-80.022;2023-05-10T03:48:55;97682.09;;;18.61;22.73
74334;BME280;62753;40.394;-80.022;2023-05-10T03:51:21;97684.12;;;18.43;22.94
74334;BME280;62753;40.394;-80.022;2023-05-10T03:53:46;97689.24;;;18.49;22.85
74334;BME280;62753;40.394;-80.022;2023-05-10T03:56:12;97694.61;;;18.32;22.81
74334;BME280;62753;40.394;-80.022;2023-05-10T03:58:37;97698.27;;;18.20;23.71
74334;BME280;62753;40.394;-80.022;2023-05-10T04:01:02;97702.77;;;18.38;23.47
74334;BME280;62753;40.394;-80.022;2023-05-10T04:03:28;97702.88;;;18.48;23.28
74334;BME280;62753;40.394;-80.022;2023-05-10T04:05:59;97706.09;;;18.18;23.74
74334;BME280;62753;40.394;-80.022;2023-05-10T04:08:19;97705.63;;;18.56;23.02
74334;BME280;62753;40.394;-80.022;2023-05-10T04:10:44;97710.41;;;18.52;22.97
74334;BME280;62753;40.394;-80.022;2023-05-10T04:13:09;97713.88;;;18.54;23.48
74334;BME280;62753;40.394;-80.022;2023-05-10T04:15:34;97716.46;;;18.04;23.94
74334;BME280;62753;40.394;-80.022;2023-05-10T04:17:59;97721.97;;;17.73;23.09
74334;BME280;62753;40.394;-80.022;2023-05-10T04:20:25;97726.71;;;18.18;24.28
74334;BME280;62753;40.394;-80.022;2023-05-10T04:22:50;97724.10;;;18.40;23.91
74334;BME280;62753;40.394;-80.022;2023-05-10T04:25:15;97726.20;;;18.13;23.28
74334;BME280;62753;40.394;-80.022;2023-05-10T04:27:41;97721.70;;;17.53;23.82
74334;BME280;62753;40.394;-80.022;2023-05-10T04:30:08;97715.00;;;18.08;23.85
74334;BME280;62753;40.394;-80.022;2023-05-10T04:32:32;97714.98;;;18.03;24.59
74334;BME280;62753;40.394;-80.022;2023-05-10T04:34:57;97721.15;;;17.75;24.14
74334;BME280;62753;40.394;-80.022;2023-05-10T04:37:22;97719.95;;;17.46;24.43
74334;BME280;62753;40.394;-80.022;2023-05-10T04:39:48;97721.94;;;17.98;24.49
74334;BME280;62753;40.394;-80.022;2023-05-10T04:42:13;97723.04;;;17.71;23.89
74334;BME280;62753;40.394;-80.022;2023-05-10T04:44:39;97728.30;;;18.00;24.33
74334;BME280;62753;40.394;-80.022;2023-05-10T04:47:04;97736.75;;;17.79;24.41
74334;BME280;62753;40.394;-80.022;2023-05-10T04:49:29;97740.97;;;17.95;24.54
74334;BME280;62753;40.394;-80.022;2023-05-10T04:51:55;97741.37;;;17.86;23.98
74334;BME280;62753;40.394;-80.022;2023-05-10T04:54:20;97741.79;;;17.91;24.05
74334;BME280;62753;40.394;-80.022;2023-05-10T04:56:46;97747.55;;;17.82;24.10
74334;BME280;62753;40.394;-80.022;2023-05-10T04:59:11;97750.62;;;17.82;24.30
74334;BME280;62753;40.394;-80.022;2023-05-10T05:01:36;97749.97;;;17.57;24.65
74334;BME280;62753;40.394;-80.022;2023-05-10T05:04:02;97744.87;;;17.68;24.73
74334;BME280;62753;40.394;-80.022;2023-05-10T05:06:27;97742.17;;;18.01;24.71
74334;BME280;62753;40.394;-80.022;2023-05-10T05:08:52;97738.53;;;17.35;24.46
74334;BME280;62753;40.394;-80.022;2023-05-10T05:11:18;97737.83;;;17.58;24.53
74334;BME280;62753;40.394;-80.022;2023-05-10T05:13:43;97736.47;;;17.97;24.61
74334;BME280;62753;40.394;-80.022;2023-05-10T05:16:08;97737.75;;;18.04;24.94
74334;BME280;62753;40.394;-80.022;2023-05-10T05:18:34;97735.33;;;17.82;24.57
74334;BME280;62753;40.394;-80.022;2023-05-10T05:20:59;97738.77;;;17.52;25.06
74334;BME280;62753;40.394;-80.022;2023-05-10T05:23:24;97740.31;;;17.68;25.00
74334;BME280;62753;40.394;-80.022;2023-05-10T05:25:50;97740.64;;;17.48;24.85
74334;BME280;62753;40.394;-80.022;2023-05-10T05:28:15;97743.19;;;17.52;24.80
74334;BME280;62753;40.394;-80.022;2023-05-10T05:30:40;97740.52;;;17.66;25.24
74334;BME280;62753;40.394;-80.022;2023-05-10T05:33:06;97735.47;;;17.24;25.39
74334;BME280;62753;40.394;-80.022;2023-05-10T05:35:32;97739.74;;;17.35;25.22
74334;BME280;62753;40.394;-80.022;2023-05-10T05:37:56;97743.04;;;17.61;25.00
74334;BME280;62753;40.394;-80.022;2023-05-10T05:40:22;97745.05;;;17.46;25.56
74334;BME280;62753;40.394;-80.022;2023-05-10T05:42:47;97742.81;;;17.47;24.83
74334;BME280;62753;40.394;-80.022;2023-05-10T05:45:13;97737.34;;;17.20;25.73
74334;BME280;62753;40.394;-80.022;2023-05-10T05:47:38;97737.55;;;17.37;25.64
74334;BME280;62753;40.394;-80.022;2023-05-10T05:50:04;97733.93;;;16.72;25.71
74334;BME280;62753;40.394;-80.022;2023-05-10T05:52:29;97736.49;;;17.05;25.76
74334;BME280;62753;40.394;-80.022;2023-05-10T05:54:54;97740.41;;;16.88;25.72
74334;BME280;62753;40.394;-80.022;2023-05-10T05:57:19;97743.56;;;17.10;26.17
74334;BME280;62753;40.394;-80.022;2023-05-10T05:59:45;97745.03;;;16.90;26.40
74334;BME280;62753;40.394;-80.022;2023-05-10T06:02:10;97743.44;;;16.89;26.93
74334;BME280;62753;40.394;-80.022;2023-05-10T06:04:36;97746.56;;;16.75;26.84
74334;BME280;62753;40.394;-80.022;2023-05-10T06:07:01;97753.44;;;16.79;26.59
74334;BME280;62753;40.394;-80.022;2023-05-10T06:09:27;97751.05;;;17.21;26.44
74334;BME280;62753;40.394;-80.022;2023-05-10T06:11:52;97750.75;;;17.09;26.21
74334;BME280;62753;40.394;-80.022;2023-05-10T06:14:17;97752.72;;;16.83;25.75
74334;BME280;62753;40.394;-80.022;2023-05-10T06:16:43;97750.42;;;17.02;25.65
74334;BME280;62753;40.394;-80.022;2023-05-10T06:19:08;97753.40;;;16.31;26.87
74334;BME280;62753;40.394;-80.022;2023-05-10T06:21:33;97756.92;;;16.91;26.07
74334;BME280;62753;40.394;-80.022;2023-05-10T06:23:59;97756.42;;;16.96;25.94
74334;BME280;62753;40.394;-80.022;2023-05-10T06:26:24;97761.84;;;17.34;25.42
74334;BME280;62753;40.394;-80.022;2023-05-10T06:28:50;97767.70;;;17.24;24.96
74334;BME280;62753;40.394;-80.022;2023-05-10T06:31:15;97767.63;;;17.55;25.07
74334;BME280;62753;40.394;-80.022;2023-05-10T06:33:40;97764.20;;;17.28;25.62
74334;BME280;62753;40.394;-80.022;2023-05-10T06:36:06;97757.95;;;17.17;25.28
74334;BME280;62753;40.394;-80.022;2023-05-10T06:38:31;97757.13;;;16.94;25.87
74334;BME280;62753;40.394;-80.022;2023-05-10T06:40:56;97766.91;;;17.09;25.95
74334;BME280;62753;40.394;-80.022;2023-05-10T06:43:22;97768.63;;;16.89;25.97
74334;BME280;62753;40.394;-80.022;2023-05-10T06:45:48;97770.15;;;16.63;26.05
74334;BME280;62753;40.394;-80.022;2023-05-10T06:48:13;97769.63;;;16.79;27.43
74334;BME280;62753;40.394;-80.022;2023-05-10T06:50:38;97766.75;;;16.75;26.20
74334;BME280;62753;40.394;-80.022;2023-05-10T06:53:03;97767.78;;;16.82;26.05
74334;BME280;62753;40.394;-80.022;2023-05-10T06:55:29;97768.07;;;16.57;25.80
74334;BME280;62753;40.394;-80.022;2023-05-10T06:57:55;97774.34;;;17.18;25.83
74334;BME280;62753;40.394;-80.022;2023-05-10T07:00:20;97779.13;;;16.88;25.69
74334;BME280;62753;40.394;-80.022;2023-05-10T07:02:46;97781.22;;;16.89;25.58
74334;BME280;62753;40.394;-80.022;2023-05-10T07:05:10;97783.40;;;17.04;25.77
74334;BME280;62753;40.394;-80.022;2023-05-10T07:07:36;97782.25;;;17.26;25.65
74334;BME280;62753;40.394;-80.022;2023-05-10T07:10:01;97782.85;;;17.19;25.12
74334;BME280;62753;40.394;-80.022;2023-05-10T07:12:26;97787.06;;;17.27;25.10
74334;BME280;62753;40.394;-80.022;2023-05-10T07:14:52;97792.02;;;17.04;25.71
74334;BME280;62753;40.394;-80.022;2023-05-10T07:17:17;97787.28;;;17.22;25.43
74334;BME280;62753;40.394;-80.022;2023-05-10T07:19:43;97791.34;;;17.29;25.47
74334;BME280;62753;40.394;-80.022;2023-05-10T07:22:08;97793.93;;;16.86;25.88
74334;BME280;62753;40.394;-80.022;2023-05-10T07:24:33;97798.68;;;16.49;25.97
74334;BME280;62753;40.394;-80.022;2023-05-10T07:26:59;97796.92;;;16.79;26.05
74334;BME280;62753;40.394;-80.022;2023-05-10T07:29:24;97791.96;;;17.17;25.31
74334;BME280;62753;40.394;-80.022;2023-05-10T07:31:50;97786.56;;;17.22;24.81
74334;BME280;62753;40.394;-80.022;2023-05-10T07:34:15;97791.33;;;17.17;25.26
74334;BME280;62753;40.394;-80.022;2023-05-10T07:36:40;97792.03;;;17.38;25.05
74334;BME280;62753;40.394;-80.022;2023-05-10T07:39:06;97793.01;;;17.26;25.26
74334;BME280;62753;40.394;-80.022;2023-05-10T07:41:31;97800.08;;;16.67;25.25
74334;BME280;62753;40.394;-80.022;2023-05-10T07:43:56;97804.62;;;17.13;25.08
74334;BME280;62753;40.394;-80.022;2023-05-10T07:46:22;97808.58;;;17.07;25.08
74334;BME280;62753;40.394;-80.022;2023-05-10T07:48:47;97808.66;;;16.80;25.49
74334;BME280;62753;40.394;-80.022;2023-05-10T07:51:13;97808.59;;;16.68;26.11
74334;BME280;62753;40.394;-80.022;2023-05-10T07:53:38;97806.50;;;16.69;25.76
74334;BME280;62753;40.394;-80.022;2023-05-10T07:58:29;97808.06;;;17.21;24.88
74334;BME280;62753;40.394;-80.022;2023-05-10T08:00:54;97805.60;;;16.79;25.31
74334;BME280;62753;40.394;-80.022;2023-05-10T08:03:19;97805.23;;;16.41;25.68
74334;BME280;62753;40.394;-80.022;2023-05-10T08:05:45;97807.38;;;16.62;25.91
74334;BME280;62753;40.394;-80.022;2023-05-10T08:08:10;97808.83;;;16.35;25.95
74334;BME280;62753;40.394;-80.022;2023-05-10T08:10:36;97812.58;;;16.68;25.57
74334;BME280;62753;40.394;-80.022;2023-05-10T08:13:01;97815.64;;;16.61;25.38
74334;BME280;62753;40.394;-80.022;2023-05-10T08:15:27;97816.18;;;17.01;24.87
74334;BME280;62753;40.394;-80.022;2023-05-10T08:17:52;97817.59;;;16.58;25.52
74334;BME280;62753;40.394;-80.022;2023-05-10T08:20:17;97818.36;;;16.79;25.31
74334;BME280;62753;40.394;-80.022;2023-05-10T08:22:43;97817.93;;;17.03;25.37
74334;BME280;62753;40.394;-80.022;2023-05-10T08:25:08;97818.89;;;17.21;24.97
74334;BME280;62753;40.394;-80.022;2023-05-10T08:27:33;97828.08;;;16.27;26.07
74334;BME280;62753;40.394;-80.022;2023-05-10T08:29:59;97837.87;;;15.93;26.89
74334;BME280;62753;40.394;-80.022;2023-05-10T08:32:24;97841.89;;;15.87;26.27
74334;BME280;62753;40.394;-80.022;2023-05-10T08:34:50;97844.35;;;16.10;26.63
74334;BME280;62753;40.394;-80.022;2023-05-10T08:37:15;97845.18;;;16.52;26.02
74334;BME280;62753;40.394;-80.022;2023-05-10T08:39:40;97843.14;;;17.02;25.42
74334;BME280;62753;40.394;-80.022;2023-05-10T08:42:06;97846.33;;;16.93;25.66
74334;BME280;62753;40.394;-80.022;2023-05-10T08:44:32;97854.41;;;17.18;25.49
74334;BME280;62753;40.394;-80.022;2023-05-10T08:46:57;97859.25;;;16.42;26.17
74334;BME280;62753;40.394;-80.022;2023-05-10T08:49:22;97858.28;;;16.71;25.59
74334;BME280;62753;40.394;-80.022;2023-05-10T08:51:53;97854.26;;;16.74;25.90
74334;BME280;62753;40.394;-80.022;2023-05-10T08:54:12;97849.03;;;17.17;25.14
74334;BME280;62753;40.394;-80.022;2023-05-10T08:56:38;97844.78;;;16.98;25.32
74334;BME280;62753;40.394;-80.022;2023-05-10T08:59:03;97844.15;;;17.11;25.23
74334;BME280;62753;40.394;-80.022;2023-05-10T09:01:29;97843.69;;;16.89;25.35
74334;BME280;62753;40.394;-80.022;2023-05-10T09:03:54;97849.35;;;17.02;25.33
74334;BME280;62753;40.394;-80.022;2023-05-10T09:06:19;97852.16;;;16.90;25.27
74334;BME280;62753;40.394;-80.022;2023-05-10T09:08:45;97849.06;;;17.39;24.75
74334;BME280;62753;40.394;-80.022;2023-05-10T09:11:10;97852.03;;;17.17;25.15
74334;BME280;62753;40.394;-80.022;2023-05-10T09:13:35;97852.07;;;17.28;25.11
74334;BME280;62753;40.394;-80.022;2023-05-10T09:16:01;97856.33;;;17.41;25.05
74334;BME280;62753;40.394;-80.022;2023-05-10T09:18:25;97852.15;;;16.86;25.19
74334;BME280;62753;40.394;-80.022;2023-05-10T09:20:51;97854.53;;;16.80;25.93
74334;BME280;62753;40.394;-80.022;2023-05-10T09:23:16;97852.77;;;16.60;25.97
74334;BME280;62753;40.394;-80.022;2023-05-10T09:25:42;97857.94;;;17.02;25.77
74334;BME280;62753;40.394;-80.022;2023-05-10T09:28:07;97862.17;;;16.81;25.99
74334;BME280;62753;40.394;-80.022;2023-05-10T09:30:31;97870.98;;;16.86;25.72
74334;BME280;62753;40.394;-80.022;2023-05-10T09:32:58;97876.49;;;17.10;25.54
74334;BME280;62753;40.394;-80.022;2023-05-10T09:35:23;97878.59;;;16.91;25.99
74334;BME280;62753;40.394;-80.022;2023-05-10T09:37:49;97876.29;;;16.52;25.41
74334;BME280;62753;40.394;-80.022;2023-05-10T09:40:14;97876.78;;;17.13;25.39
74334;BME280;62753;40.394;-80.022;2023-05-10T09:42:38;97872.67;;;16.98;25.54
74334;BME280;62753;40.394;-80.022;2023-05-10T09:45:04;97867.93;;;16.87;25.26
74334;BME280;62753;40.394;-80.022;2023-05-10T09:47:29;97867.09;;;16.68;25.72
74334;BME280;62753;40.394;-80.022;2023-05-10T09:49:54;97869.61;;;17.06;25.45
74334;BME280;62753;40.394;-80.022;2023-05-10T09:52:20;97871.14;;;16.81;25.58
74334;BME280;62753;40.394;-80.022;2023-05-10T09:54:52;97873.74;;;17.06;25.04
74334;BME280;62753;40.394;-80.022;2023-05-10T09:57:19;97879.02;;;17.44;24.95
74334;BME280;62753;40.394;-80.022;2023-05-10T09:59:36;97881.95;;;17.03;25.10
74334;BME280;62753;40.394;-80.022;2023-05-10T10:02:02;97879.55;;;16.90;25.35
74334;BME280;62753;40.394;-80.022;2023-05-10T10:04:28;97878.40;;;17.05;25.36
74334;BME280;62753;40.394;-80.022;2023-05-10T10:07:02;97880.15;;;16.90;25.68
74334;BME280;62753;40.394;-80.022;2023-05-10T10:09:17;97883.62;;;16.09;26.97
74334;BME280;62753;40.394;-80.022;2023-05-10T10:11:42;97885.78;;;16.17;26.94
74334;BME280;62753;40.394;-80.022;2023-05-10T10:14:09;97888.96;;;16.39;26.83
74334;BME280;62753;40.394;-80.022;2023-05-10T10:16:34;97891.90;;;15.99;27.13
74334;BME280;62753;40.394;-80.022;2023-05-10T10:19:00;97904.29;;;15.89;27.92
74334;BME280;62753;40.394;-80.022;2023-05-10T10:21:25;97908.64;;;15.95;28.70
74334;BME280;62753;40.394;-80.022;2023-05-10T10:23:50;97910.59;;;16.10;28.11
74334;BME280;62753;40.394;-80.022;2023-05-10T10:26:17;97907.41;;;15.83;28.49
74334;BME280;62753;40.394;-80.022;2023-05-10T10:28:49;97906.30;;;16.33;28.18
74334;BME280;62753;40.394;-80.022;2023-05-10T10:31:13;97909.67;;;16.05;28.15
74334;BME280;62753;40.394;-80.022;2023-05-10T10:33:43;97913.83;;;16.28;28.50
74334;BME280;62753;40.394;-80.022;2023-05-10T10:36:00;97930.80;;;16.39;28.69
74334;BME280;62753;40.394;-80.022;2023-05-10T10:38:22;97941.84;;;16.00;29.61
74334;BME280;62753;40.394;-80.022;2023-05-10T10:40:48;97945.66;;;15.73;30.01
74334;BME280;62753;40.394;-80.022;2023-05-10T10:43:22;97948.68;;;15.80;29.82
74334;BME280;62753;40.394;-80.022;2023-05-10T10:45:39;97950.80;;;16.02;29.52
74334;BME280;62753;40.394;-80.022;2023-05-10T10:48:19;97952.94;;;16.22;29.81
74334;BME280;62753;40.394;-80.022;2023-05-10T10:50:29;97957.11;;;16.62;29.42
74334;BME280;62753;40.394;-80.022;2023-05-10T10:52:54;97966.31;;;16.34;29.87
74334;BME280;62753;40.394;-80.022;2023-05-10T10:55:21;97977.52;;;15.38;31.14
74334;BME280;62753;40.394;-80.022;2023-05-10T10:57:47;97984.45;;;15.99;30.22
74334;BME280;62753;40.394;-80.022;2023-05-10T11:00:21;97988.34;;;15.65;30.83
74334;BME280;62753;40.394;-80.022;2023-05-10T11:02:43;97983.66;;;16.07;30.17
74334;BME280;62753;40.394;-80.022;2023-05-10T11:07:26;97989.72;;;16.65;29.05
74334;BME280;62753;40.394;-80.022;2023-05-10T11:09:52;97989.97;;;16.82;28.35
74334;BME280;62753;40.394;-80.022;2023-05-10T11:12:17;97992.13;;;16.65;28.74
74334;BME280;62753;40.394;-80.022;2023-05-10T11:14:42;97983.49;;;16.93;28.45
74334;BME280;62753;40.394;-80.022;2023-05-10T11:19:32;97986.38;;;16.93;28.98
74334;BME280;62753;40.394;-80.022;2023-05-10T11:22:12;97994.53;;;16.52;29.81
74334;BME280;62753;40.394;-80.022;2023-05-10T11:24:27;97996.34;;;16.26;30.31
74334;BME280;62753;40.394;-80.022;2023-05-10T11:26:50;97991.78;;;17.06;29.75
74334;BME280;62753;40.394;-80.022;2023-05-10T11:29:15;97992.35;;;16.57;29.38
74334;BME280;62753;40.394;-80.022;2023-05-10T11:31:43;97996.69;;;15.95;30.99
74334;BME280;62753;40.394;-80.022;2023-05-10T11:34:05;97996.18;;;15.79;30.99
74334;BME280;62753;40.394;-80.022;2023-05-10T11:36:34;97994.30;;;16.51;30.39
74334;BME280;62753;40.394;-80.022;2023-05-10T11:38:56;97999.54;;;16.81;29.90
74334;BME280;62753;40.394;-80.022;2023-05-10T11:41:22;98000.88;;;16.91;29.43
74334;BME280;62753;40.394;-80.022;2023-05-10T11:43:49;97998.46;;;16.56;30.21
74334;BME280;62753;40.394;-80.022;2023-05-10T11:46:13;97998.89;;;16.24;30.81
74334;BME280;62753;40.394;-80.022;2023-05-10T11:48:38;97997.28;;;16.53;31.04
74334;BME280;62753;40.394;-80.022;2023-05-10T11:51:02;97995.32;;;16.30;31.26
74334;BME280;62753;40.394;-80.022;2023-05-10T11:53:29;97998.27;;;16.42;30.20
74334;BME280;62753;40.394;-80.022;2023-05-10T11:55:54;97994.42;;;17.37;29.82
74334;BME280;62753;40.394;-80.022;2023-05-10T11:58:19;97994.44;;;16.48;29.79
74334;BME280;62753;40.394;-80.022;2023-05-10T12:00:44;97997.61;;;16.24;30.38
74334;BME280;62753;40.394;-80.022;2023-05-10T12:03:10;97998.87;;;16.43;32.56
74334;BME280;62753;40.394;-80.022;2023-05-10T12:05:35;98003.57;;;16.29;30.04
74334;BME280;62753;40.394;-80.022;2023-05-10T12:08:11;98005.65;;;16.59;30.17
74334;BME280;62753;40.394;-80.022;2023-05-10T12:10:26;98006.72;;;17.14;30.00
74334;BME280;62753;40.394;-80.022;2023-05-10T12:12:52;98000.51;;;17.29;28.98
74334;BME280;62753;40.394;-80.022;2023-05-10T12:15:18;98002.76;;;17.82;28.20
74334;BME280;62753;40.394;-80.022;2023-05-10T12:17:40;98006.40;;;16.49;30.06
74334;BME280;62753;40.394;-80.022;2023-05-10T12:20:16;98003.52;;;17.42;28.25
74334;BME280;62753;40.394;-80.022;2023-05-10T12:22:34;98010.27;;;17.27;28.35
74334;BME280;62753;40.394;-80.022;2023-05-10T12:24:59;98010.75;;;17.18;27.60
74334;BME280;62753;40.394;-80.022;2023-05-10T12:27:22;98015.29;;;16.92;27.36
74334;BME280;62753;40.394;-80.022;2023-05-10T12:29:53;98021.34;;;16.60;28.91
74334;BME280;62753;40.394;-80.022;2023-05-10T12:32:12;98026.99;;;16.86;29.15
74334;BME280;62753;40.394;-80.022;2023-05-10T12:34:38;98028.27;;;17.32;27.84
74334;BME280;62753;40.394;-80.022;2023-05-10T12:37:03;98026.37;;;17.87;28.16